sensor_id;sensor_type;location;lat;lon;timestamp;P1;durP1;ratioP1;P2;durP2;ratioP2
31382;SDS011;18014;49.228;11.102;2023-03-31T00:00:20;4.20;;;1.58;;
31382;SDS011;18014;49.228;11.102;2023-03-31T00:02:22;6.07;;;1.90;;
31382;SDS011;18014;49.228;11.102;2023-03-31T00:04:23;8.00;;;2.03;;
31382;SDS011;18014;49.228;11.102;2023-03-31T00:06:25;5.40;;;1.70;;
31382;SDS011;18014;49.228;11.102;2023-03-31T00:08:27;6.38;;;1.92;;
31382;SDS011;18014;49.228;11.102;2023-03-31T00:10:34;7.18;;;1.85;;
31382;SDS011;18014;49.228;11.102;2023-03-31T00:12:35;6.10;;;2.33;;
31382;SDS011;18014;49.228;11.102;2023-03-31T00:14:36;6.80;;;1.92;;
31382;SDS011;18014;49.228;11.102;2023-03-31T00:16:37;3.85;;;1.88;;
31382;SDS011;18014;49.228;11.102;2023-03-31T00:18:38;4.50;;;2.00;;
31382;SDS011;18014;49.228;11.102;2023-03-31T00:20:50;5.43;;;1.80;;
31382;SDS011;18014;49.228;11.102;2023-03-31T00:22:51;6.03;;;1.57;;
31382;SDS011;18014;49.228;11.102;2023-03-31T00:24:53;4.82;;;2.35;;
31382;SDS011;18014;49.228;11.102;2023-03-31T00:26:54;4.57;;;1.90;;
31382;SDS011;18014;49.228;11.102;2023-03-31T00:28:55;5.90;;;2.03;;
31382;SDS011;18014;49.228;11.102;2023-03-31T00:31:01;4.10;;;1.83;;
31382;SDS011;18014;49.228;11.102;2023-03-31T00:33:02;5.88;;;1.73;;
31382;SDS011;18014;49.228;11.102;2023-03-31T00:35:03;5.43;;;1.90;;
31382;SDS011;18014;49.228;11.102;2023-03-31T00:37:04;7.68;;;1.83;;
31382;SDS011;18014;49.228;11.102;2023-03-31T00:39:08;5.75;;;1.77;;
31382;SDS011;18014;49.228;11.102;2023-03-31T00:41:09;4.70;;;2.13;;
31382;SDS011;18014;49.228;11.102;2023-03-31T00:43:16;3.58;;;1.92;;
31382;SDS011;18014;49.228;11.102;2023-03-31T00:45:28;4.53;;;2.15;;
31382;SDS011;18014;49.228;11.102;2023-03-31T00:47:30;5.50;;;2.33;;
31382;SDS011;18014;49.228;11.102;2023-03-31T00:49:34;4.05;;;1.90;;
31382;SDS011;18014;49.228;11.102;2023-03-31T00:51:40;4.80;;;2.00;;
31382;SDS011;18014;49.228;11.102;2023-03-31T00:53:42;4.82;;;1.67;;
31382;SDS011;18014;49.228;11.102;2023-03-31T00:55:50;5.85;;;2.05;;
31382;SDS011;18014;49.228;11.102;2023-03-31T00:57:53;4.32;;;2.22;;
31382;SDS011;18014;49.228;11.102;2023-03-31T00:59:57;5.22;;;2.22;;
31382;SDS011;18014;49.228;11.102;2023-03-31T01:04:04;6.25;;;1.75;;
31382;SDS011;18014;49.228;11.102;2023-03-31T01:06:08;5.63;;;2.15;;
31382;SDS011;18014;49.228;11.102;2023-03-31T01:08:10;6.60;;;1.95;;
31382;SDS011;18014;49.228;11.102;2023-03-31T01:10:13;6.85;;;2.45;;
31382;SDS011;18014;49.228;11.102;2023-03-31T01:12:14;4.93;;;2.15;;
31382;SDS011;18014;49.228;11.102;2023-03-31T01:14:18;6.22;;;2.60;;
31382;SDS011;18014;49.228;11.102;2023-03-31T01:16:19;7.68;;;2.30;;
31382;SDS011;18014;49.228;11.102;2023-03-31T01:18:21;5.00;;;1.88;;
31382;SDS011;18014;49.228;11.102;2023-03-31T01:22:44;4.45;;;1.85;;
31382;SDS011;18014;49.228;11.102;2023-03-31T01:27:36;5.65;;;1.75;;
31382;SDS011;18014;49.228;11.102;2023-03-31T01:32:54;6.13;;;2.13;;
31382;SDS011;18014;49.228;11.102;2023-03-31T01:45:07;5.13;;;1.95;;
31382;SDS011;18014;49.228;11.102;2023-03-31T01:47:18;4.30;;;2.22;;
31382;SDS011;18014;49.228;11.102;2023-03-31T01:49:33;7.18;;;2.10;;
31382;SDS011;18014;49.228;11.102;2023-03-31T01:52:00;5.30;;;2.47;;
31382;SDS011;18014;49.228;11.102;2023-03-31T01:58:36;6.47;;;2.70;;
31382;SDS011;18014;49.228;11.102;2023-03-31T02:00:41;6.95;;;2.50;;
31382;SDS011;18014;49.228;11.102;2023-03-31T02:04:58;7.75;;;2.97;;
31382;SDS011;18014;49.228;11.102;2023-03-31T02:07:09;4.32;;;2.10;;
31382;SDS011;18014;49.228;11.102;2023-03-31T02:09:17;4.20;;;2.25;;
31382;SDS011;18014;49.228;11.102;2023-03-31T02:11:21;6.05;;;2.22;;
31382;SDS011;18014;49.228;11.102;2023-03-31T02:13:23;8.07;;;2.10;;
31382;SDS011;18014;49.228;11.102;2023-03-31T02:15:28;6.50;;;2.10;;
31382;SDS011;18014;49.228;11.102;2023-03-31T02:17:33;6.18;;;2.40;;
31382;SDS011;18014;49.228;11.102;2023-03-31T02:19:39;7.05;;;2.20;;
31382;SDS011;18014;49.228;11.102;2023-03-31T02:21:42;8.90;;;2.38;;
31382;SDS011;18014;49.228;11.102;2023-03-31T02:23:45;6.72;;;2.13;;
31382;SDS011;18014;49.228;11.102;2023-03-31T02:25:49;6.47;;;2.20;;
31382;SDS011;18014;49.228;11.102;2023-03-31T02:27:59;4.53;;;2.20;;
31382;SDS011;18014;49.228;11.102;2023-03-31T02:30:03;7.60;;;2.50;;
31382;SDS011;18014;49.228;11.102;2023-03-31T02:32:13;8.63;;;2.97;;
31382;SDS011;18014;49.228;11.102;2023-03-31T02:34:41;7.38;;;2.50;;
31382;SDS011;18014;49.228;11.102;2023-03-31T02:36:43;7.82;;;2.42;;
31382;SDS011;18014;49.228;11.102;2023-03-31T02:38:49;9.23;;;2.33;;
31382;SDS011;18014;49.228;11.102;2023-03-31T02:40:55;11.85;;;3.03;;
31382;SDS011;18014;49.228;11.102;2023-03-31T02:42:57;6.20;;;2.58;;
31382;SDS011;18014;49.228;11.102;2023-03-31T02:45:05;7.15;;;2.63;;
31382;SDS011;18014;49.228;11.102;2023-03-31T02:47:26;8.98;;;2.75;;
31382;SDS011;18014;49.228;11.102;2023-03-31T02:49:27;4.95;;;2.40;;
31382;SDS011;18014;49.228;11.102;2023-03-31T02:53:58;8.38;;;2.17;;
31382;SDS011;18014;49.228;11.102;2023-03-31T02:58:22;5.72;;;2.83;;
31382;SDS011;18014;49.228;11.102;2023-03-31T03:00:50;5.82;;;2.22;;
31382;SDS011;18014;49.228;11.102;2023-03-31T03:03:07;7.20;;;2.38;;
31382;SDS011;18014;49.228;11.102;2023-03-31T03:08:26;8.48;;;3.05;;
31382;SDS011;18014;49.228;11.102;2023-03-31T03:10:49;6.25;;;2.03;;
31382;SDS011;18014;49.228;11.102;2023-03-31T03:13:00;6.93;;;2.75;;
31382;SDS011;18014;49.228;11.102;2023-03-31T03:15:25;5.10;;;2.40;;
31382;SDS011;18014;49.228;11.102;2023-03-31T03:17:46;9.63;;;2.55;;
31382;SDS011;18014;49.228;11.102;2023-03-31T03:19:52;5.75;;;3.05;;
31382;SDS011;18014;49.228;11.102;2023-03-31T03:21:55;9.63;;;2.60;;
31382;SDS011;18014;49.228;11.102;2023-03-31T03:23:57;5.85;;;2.60;;
31382;SDS011;18014;49.228;11.102;2023-03-31T03:25:59;6.70;;;2.63;;
31382;SDS011;18014;49.228;11.102;2023-03-31T03:28:00;5.65;;;2.40;;
31382;SDS011;18014;49.228;11.102;2023-03-31T03:30:01;4.32;;;2.25;;
31382;SDS011;18014;49.228;11.102;2023-03-31T03:32:04;6.15;;;2.90;;
31382;SDS011;18014;49.228;11.102;2023-03-31T03:34:05;7.50;;;2.65;;
31382;SDS011;18014;49.228;11.102;2023-03-31T03:36:06;9.18;;;2.80;;
31382;SDS011;18014;49.228;11.102;2023-03-31T03:38:07;8.02;;;3.10;;
31382;SDS011;18014;49.228;11.102;2023-03-31T03:40:09;3.95;;;2.42;;
31382;SDS011;18014;49.228;11.102;2023-03-31T03:42:10;9.38;;;2.97;;
31382;SDS011;18014;49.228;11.102;2023-03-31T03:44:11;8.93;;;3.13;;
31382;SDS011;18014;49.228;11.102;2023-03-31T03:46:12;8.00;;;2.60;;
31382;SDS011;18014;49.228;11.102;2023-03-31T03:48:13;7.80;;;3.03;;
31382;SDS011;18014;49.228;11.102;2023-03-31T03:50:14;8.30;;;3.28;;
31382;SDS011;18014;49.228;11.102;2023-03-31T03:52:15;10.50;;;3.38;;
31382;SDS011;18014;49.228;11.102;2023-03-31T03:54:16;9.07;;;3.47;;
31382;SDS011;18014;49.228;11.102;2023-03-31T03:56:17;11.40;;;3.00;;
31382;SDS011;18014;49.228;11.102;2023-03-31T03:58:18;6.03;;;2.92;;
31382;SDS011;18014;49.228;11.102;2023-03-31T04:00:19;6.60;;;2.50;;
31382;SDS011;18014;49.228;11.102;2023-03-31T04:02:20;7.50;;;2.95;;
31382;SDS011;18014;49.228;11.102;2023-03-31T04:04:21;8.27;;;2.92;;
31382;SDS011;18014;49.228;11.102;2023-03-31T04:06:22;7.32;;;2.85;;
31382;SDS011;18014;49.228;11.102;2023-03-31T04:08:23;7.32;;;2.53;;
31382;SDS011;18014;49.228;11.102;2023-03-31T04:10:24;4.90;;;2.50;;
31382;SDS011;18014;49.228;11.102;2023-03-31T04:12:25;7.03;;;2.88;;
31382;SDS011;18014;49.228;11.102;2023-03-31T04:14:26;8.55;;;2.92;;
31382;SDS011;18014;49.228;11.102;2023-03-31T04:16:27;6.50;;;2.70;;
31382;SDS011;18014;49.228;11.102;2023-03-31T04:18:29;8.05;;;2.83;;
31382;SDS011;18014;49.228;11.102;2023-03-31T04:20:30;8.25;;;2.83;;
31382;SDS011;18014;49.228;11.102;2023-03-31T04:22:31;8.93;;;3.03;;
31382;SDS011;18014;49.228;11.102;2023-03-31T04:24:39;7.78;;;2.55;;
31382;SDS011;18014;49.228;11.102;2023-03-31T04:26:40;9.52;;;2.92;;
31382;SDS011;18014;49.228;11.102;2023-03-31T04:28:44;6.28;;;2.88;;
31382;SDS011;18014;49.228;11.102;2023-03-31T04:30:49;7.32;;;3.25;;
31382;SDS011;18014;49.228;11.102;2023-03-31T04:32:51;6.90;;;2.95;;
31382;SDS011;18014;49.228;11.102;2023-03-31T04:34:53;8.70;;;3.53;;
31382;SDS011;18014;49.228;11.102;2023-03-31T04:37:02;5.00;;;2.83;;
31382;SDS011;18014;49.228;11.102;2023-03-31T04:39:03;9.25;;;3.40;;
31382;SDS011;18014;49.228;11.102;2023-03-31T04:41:04;9.35;;;2.90;;
31382;SDS011;18014;49.228;11.102;2023-03-31T04:43:06;5.55;;;2.47;;
31382;SDS011;18014;49.228;11.102;2023-03-31T04:45:07;4.70;;;2.63;;
31382;SDS011;18014;49.228;11.102;2023-03-31T04:47:09;9.77;;;3.20;;
31382;SDS011;18014;49.228;11.102;2023-03-31T04:49:10;6.97;;;3.10;;
31382;SDS011;18014;49.228;11.102;2023-03-31T04:51:11;7.80;;;2.42;;
31382;SDS011;18014;49.228;11.102;2023-03-31T04:53:14;12.38;;;3.13;;
31382;SDS011;18014;49.228;11.102;2023-03-31T04:55:15;8.88;;;3.17;;
31382;SDS011;18014;49.228;11.102;2023-03-31T04:57:16;9.57;;;3.33;;
31382;SDS011;18014;49.228;11.102;2023-03-31T04:59:17;9.40;;;3.10;;
31382;SDS011;18014;49.228;11.102;2023-03-31T05:01:18;7.00;;;2.58;;
31382;SDS011;18014;49.228;11.102;2023-03-31T05:03:19;9.00;;;2.47;;
31382;SDS011;18014;49.228;11.102;2023-03-31T05:05:20;5.25;;;2.38;;
31382;SDS011;18014;49.228;11.102;2023-03-31T05:07:21;9.57;;;2.60;;
31382;SDS011;18014;49.228;11.102;2023-03-31T05:09:22;4.07;;;2.30;;
31382;SDS011;18014;49.228;11.102;2023-03-31T05:11:23;6.72;;;1.80;;
31382;SDS011;18014;49.228;11.102;2023-03-31T05:13:25;8.13;;;2.28;;
31382;SDS011;18014;49.228;11.102;2023-03-31T05:15:26;9.13;;;2.80;;
31382;SDS011;18014;49.228;11.102;2023-03-31T05:17:29;4.07;;;2.63;;
31382;SDS011;18014;49.228;11.102;2023-03-31T05:19:31;6.28;;;3.00;;
31382;SDS011;18014;49.228;11.102;2023-03-31T05:21:33;10.85;;;2.90;;
31382;SDS011;18014;49.228;11.102;2023-03-31T05:23:33;6.00;;;2.65;;
31382;SDS011;18014;49.228;11.102;2023-03-31T05:25:34;7.75;;;2.40;;
31382;SDS011;18014;49.228;11.102;2023-03-31T05:27:36;8.18;;;2.97;;
31382;SDS011;18014;49.228;11.102;2023-03-31T05:29:37;9.88;;;3.42;;
31382;SDS011;18014;49.228;11.102;2023-03-31T05:31:38;6.18;;;2.42;;
31382;SDS011;18014;49.228;11.102;2023-03-31T05:33:39;7.95;;;2.63;;
31382;SDS011;18014;49.228;11.102;2023-03-31T05:35:40;7.68;;;2.80;;
31382;SDS011;18014;49.228;11.102;2023-03-31T05:37:43;7.93;;;2.42;;
31382;SDS011;18014;49.228;11.102;2023-03-31T05:39:44;8.18;;;2.90;;
31382;SDS011;18014;49.228;11.102;2023-03-31T05:41:45;7.90;;;2.45;;
31382;SDS011;18014;49.228;11.102;2023-03-31T05:43:46;7.80;;;2.33;;
31382;SDS011;18014;49.228;11.102;2023-03-31T05:45:47;6.72;;;2.42;;
31382;SDS011;18014;49.228;11.102;2023-03-31T05:47:48;5.00;;;2.33;;
31382;SDS011;18014;49.228;11.102;2023-03-31T05:49:49;8.75;;;3.40;;
31382;SDS011;18014;49.228;11.102;2023-03-31T05:51:50;4.18;;;2.60;;
31382;SDS011;18014;49.228;11.102;2023-03-31T05:53:52;6.10;;;2.88;;
31382;SDS011;18014;49.228;11.102;2023-03-31T05:55:57;6.55;;;2.92;;
31382;SDS011;18014;49.228;11.102;2023-03-31T05:57:59;9.27;;;3.03;;
31382;SDS011;18014;49.228;11.102;2023-03-31T06:00:00;7.88;;;3.45;;
31382;SDS011;18014;49.228;11.102;2023-03-31T06:02:01;9.15;;;3.75;;
31382;SDS011;18014;49.228;11.102;2023-03-31T06:04:03;11.68;;;3.67;;
31382;SDS011;18014;49.228;11.102;2023-03-31T06:06:04;9.13;;;3.45;;
31382;SDS011;18014;49.228;11.102;2023-03-31T06:08:07;12.23;;;3.85;;
31382;SDS011;18014;49.228;11.102;2023-03-31T06:10:08;5.88;;;3.38;;
31382;SDS011;18014;49.228;11.102;2023-03-31T06:12:09;9.13;;;3.55;;
31382;SDS011;18014;49.228;11.102;2023-03-31T06:14:10;8.98;;;3.70;;
31382;SDS011;18014;49.228;11.102;2023-03-31T06:16:12;7.40;;;3.50;;
31382;SDS011;18014;49.228;11.102;2023-03-31T06:18:13;8.82;;;4.00;;
31382;SDS011;18014;49.228;11.102;2023-03-31T06:20:14;10.85;;;4.10;;
31382;SDS011;18014;49.228;11.102;2023-03-31T06:22:15;8.95;;;3.67;;
31382;SDS011;18014;49.228;11.102;2023-03-31T06:24:16;8.70;;;4.10;;
31382;SDS011;18014;49.228;11.102;2023-03-31T06:26:17;5.95;;;3.75;;
31382;SDS011;18014;49.228;11.102;2023-03-31T06:28:19;9.90;;;4.28;;
31382;SDS011;18014;49.228;11.102;2023-03-31T06:30:20;11.18;;;4.55;;
31382;SDS011;18014;49.228;11.102;2023-03-31T06:32:21;12.02;;;4.00;;
31382;SDS011;18014;49.228;11.102;2023-03-31T06:34:22;9.68;;;4.90;;
31382;SDS011;18014;49.228;11.102;2023-03-31T06:36:23;14.10;;;4.75;;
31382;SDS011;18014;49.228;11.102;2023-03-31T06:38:24;10.82;;;4.07;;
31382;SDS011;18014;49.228;11.102;2023-03-31T06:40:26;6.57;;;4.25;;
31382;SDS011;18014;49.228;11.102;2023-03-31T06:42:27;9.95;;;4.60;;
31382;SDS011;18014;49.228;11.102;2023-03-31T06:44:28;9.73;;;4.50;;
31382;SDS011;18014;49.228;11.102;2023-03-31T06:46:29;10.57;;;4.93;;
31382;SDS011;18014;49.228;11.102;2023-03-31T06:48:30;8.82;;;4.93;;
31382;SDS011;18014;49.228;11.102;2023-03-31T06:50:31;7.53;;;4.63;;
31382;SDS011;18014;49.228;11.102;2023-03-31T06:52:32;9.40;;;4.90;;
31382;SDS011;18014;49.228;11.102;2023-03-31T06:54:33;13.98;;;5.22;;
31382;SDS011;18014;49.228;11.102;2023-03-31T06:56:34;13.20;;;5.57;;
31382;SDS011;18014;49.228;11.102;2023-03-31T06:58:35;8.68;;;5.30;;
31382;SDS011;18014;49.228;11.102;2023-03-31T07:00:36;7.90;;;5.25;;
31382;SDS011;18014;49.228;11.102;2023-03-31T07:02:37;12.13;;;5.82;;
31382;SDS011;18014;49.228;11.102;2023-03-31T07:04:38;11.40;;;6.10;;
31382;SDS011;18014;49.228;11.102;2023-03-31T07:06:39;10.52;;;6.00;;
31382;SDS011;18014;49.228;11.102;2023-03-31T07:08:40;10.18;;;5.25;;
31382;SDS011;18014;49.228;11.102;2023-03-31T07:10:42;15.68;;;5.18;;
31382;SDS011;18014;49.228;11.102;2023-03-31T07:12:46;10.75;;;5.60;;
31382;SDS011;18014;49.228;11.102;2023-03-31T07:14:47;10.32;;;5.15;;
31382;SDS011;18014;49.228;11.102;2023-03-31T07:16:48;12.88;;;5.43;;
31382;SDS011;18014;49.228;11.102;2023-03-31T07:18:49;11.10;;;5.90;;
31382;SDS011;18014;49.228;11.102;2023-03-31T07:20:53;15.73;;;6.07;;
31382;SDS011;18014;49.228;11.102;2023-03-31T07:22:54;11.80;;;5.72;;
31382;SDS011;18014;49.228;11.102;2023-03-31T07:24:56;9.60;;;5.53;;
31382;SDS011;18014;49.228;11.102;2023-03-31T07:26:57;12.30;;;6.47;;
31382;SDS011;18014;49.228;11.102;2023-03-31T07:28:58;10.82;;;6.03;;
31382;SDS011;18014;49.228;11.102;2023-03-31T07:30:59;12.70;;;5.95;;
31382;SDS011;18014;49.228;11.102;2023-03-31T07:33:00;10.80;;;6.03;;
31382;SDS011;18014;49.228;11.102;2023-03-31T07:35:01;11.23;;;7.07;;
31382;SDS011;18014;49.228;11.102;2023-03-31T07:37:02;10.88;;;6.97;;
31382;SDS011;18014;49.228;11.102;2023-03-31T07:39:04;9.45;;;6.38;;
31382;SDS011;18014;49.228;11.102;2023-03-31T07:41:08;12.20;;;6.65;;
31382;SDS011;18014;49.228;11.102;2023-03-31T07:43:11;11.20;;;5.32;;
31382;SDS011;18014;49.228;11.102;2023-03-31T07:45:12;12.60;;;5.88;;
31382;SDS011;18014;49.228;11.102;2023-03-31T07:47:14;10.55;;;6.20;;
31382;SDS011;18014;49.228;11.102;2023-03-31T07:49:15;12.45;;;6.72;;
31382;SDS011;18014;49.228;11.102;2023-03-31T07:51:17;13.10;;;6.35;;
31382;SDS011;18014;49.228;11.102;2023-03-31T07:53:20;14.82;;;6.20;;
31382;SDS011;18014;49.228;11.102;2023-03-31T07:55:21;9.95;;;4.95;;
31382;SDS011;18014;49.228;11.102;2023-03-31T07:57:22;11.40;;;6.32;;
31382;SDS011;18014;49.228;11.102;2023-03-31T07:59:23;10.73;;;6.13;;
31382;SDS011;18014;49.228;11.102;2023-03-31T08:01:24;13.90;;;6.55;;
31382;SDS011;18014;49.228;11.102;2023-03-31T08:03:28;11.18;;;6.50;;
31382;SDS011;18014;49.228;11.102;2023-03-31T08:05:30;11.90;;;6.47;;
31382;SDS011;18014;49.228;11.102;2023-03-31T08:07:35;10.68;;;6.05;;
31382;SDS011;18014;49.228;11.102;2023-03-31T08:09:37;10.90;;;6.47;;
31382;SDS011;18014;49.228;11.102;2023-03-31T08:11:39;10.20;;;6.00;;
31382;SDS011;18014;49.228;11.102;2023-03-31T08:13:40;15.88;;;7.47;;
31382;SDS011;18014;49.228;11.102;2023-03-31T08:15:41;11.23;;;6.80;;
31382;SDS011;18014;49.228;11.102;2023-03-31T08:17:42;12.50;;;6.63;;
31382;SDS011;18014;49.228;11.102;2023-03-31T08:19:43;15.00;;;7.72;;
31382;SDS011;18014;49.228;11.102;2023-03-31T08:21:44;12.45;;;7.43;;
31382;SDS011;18014;49.228;11.102;2023-03-31T08:23:45;17.02;;;8.05;;
31382;SDS011;18014;49.228;11.102;2023-03-31T08:25:46;12.57;;;7.10;;
31382;SDS011;18014;49.228;11.102;2023-03-31T08:27:47;14.27;;;7.57;;
31382;SDS011;18014;49.228;11.102;2023-03-31T08:31:50;18.27;;;8.15;;
31382;SDS011;18014;49.228;11.102;2023-03-31T08:33:52;13.53;;;7.63;;
31382;SDS011;18014;49.228;11.102;2023-03-31T08:35:54;14.52;;;7.78;;
31382;SDS011;18014;49.228;11.102;2023-03-31T08:37:55;12.18;;;7.55;;
31382;SDS011;18014;49.228;11.102;2023-03-31T08:39:56;16.27;;;8.50;;
31382;SDS011;18014;49.228;11.102;2023-03-31T08:44:05;15.50;;;8.68;;
31382;SDS011;18014;49.228;11.102;2023-03-31T08:46:24;9.05;;;6.15;;
31382;SDS011;18014;49.228;11.102;2023-03-31T08:48:35;11.48;;;6.00;;
31382;SDS011;18014;49.228;11.102;2023-03-31T08:50:45;9.13;;;6.35;;
31382;SDS011;18014;49.228;11.102;2023-03-31T08:53:15;13.38;;;7.18;;
31382;SDS011;18014;49.228;11.102;2023-03-31T08:55:21;7.93;;;5.65;;
31382;SDS011;18014;49.228;11.102;2023-03-31T08:57:31;12.90;;;5.32;;
31382;SDS011;18014;49.228;11.102;2023-03-31T08:59:42;10.93;;;5.60;;
31382;SDS011;18014;49.228;11.102;2023-03-31T09:01:49;11.85;;;7.53;;
31382;SDS011;18014;49.228;11.102;2023-03-31T09:08:49;11.25;;;4.75;;
31382;SDS011;18014;49.228;11.102;2023-03-31T09:10:52;10.38;;;4.82;;
31382;SDS011;18014;49.228;11.102;2023-03-31T09:12:56;5.07;;;4.28;;
31382;SDS011;18014;49.228;11.102;2023-03-31T09:15:10;7.35;;;5.13;;
31382;SDS011;18014;49.228;11.102;2023-03-31T09:17:20;6.90;;;4.63;;
31382;SDS011;18014;49.228;11.102;2023-03-31T09:19:31;9.30;;;4.63;;
31382;SDS011;18014;49.228;11.102;2023-03-31T09:21:44;8.07;;;4.38;;
31382;SDS011;18014;49.228;11.102;2023-03-31T09:26:26;3.50;;;2.73;;
31382;SDS011;18014;49.228;11.102;2023-03-31T09:28:36;5.70;;;3.72;;
31382;SDS011;18014;49.228;11.102;2023-03-31T09:30:38;6.72;;;3.60;;
31382;SDS011;18014;49.228;11.102;2023-03-31T09:32:41;5.03;;;3.33;;
31382;SDS011;18014;49.228;11.102;2023-03-31T09:34:43;5.97;;;3.33;;
31382;SDS011;18014;49.228;11.102;2023-03-31T09:36:46;5.38;;;3.42;;
31382;SDS011;18014;49.228;11.102;2023-03-31T09:38:47;9.40;;;3.38;;
31382;SDS011;18014;49.228;11.102;2023-03-31T09:40:48;4.15;;;3.05;;
31382;SDS011;18014;49.228;11.102;2023-03-31T09:42:50;5.47;;;3.00;;
31382;SDS011;18014;49.228;11.102;2023-03-31T09:44:56;4.82;;;3.33;;
31382;SDS011;18014;49.228;11.102;2023-03-31T09:46:57;5.55;;;2.92;;
31382;SDS011;18014;49.228;11.102;2023-03-31T09:49:03;4.00;;;2.70;;
31382;SDS011;18014;49.228;11.102;2023-03-31T09:51:13;5.22;;;2.90;;
31382;SDS011;18014;49.228;11.102;2023-03-31T09:55:42;6.10;;;2.35;;
31382;SDS011;18014;49.228;11.102;2023-03-31T09:57:46;3.97;;;2.17;;
31382;SDS011;18014;49.228;11.102;2023-03-31T09:59:49;3.80;;;2.08;;
31382;SDS011;18014;49.228;11.102;2023-03-31T10:01:51;4.95;;;2.40;;
31382;SDS011;18014;49.228;11.102;2023-03-31T10:03:55;4.55;;;2.33;;
31382;SDS011;18014;49.228;11.102;2023-03-31T10:05:57;4.55;;;1.83;;
31382;SDS011;18014;49.228;11.102;2023-03-31T10:10:30;5.22;;;1.92;;
31382;SDS011;18014;49.228;11.102;2023-03-31T10:12:32;3.75;;;2.05;;
31382;SDS011;18014;49.228;11.102;2023-03-31T10:16:50;7.63;;;2.08;;
31382;SDS011;18014;49.228;11.102;2023-03-31T10:18:53;5.68;;;2.30;;
31382;SDS011;18014;49.228;11.102;2023-03-31T10:21:23;4.70;;;1.70;;
31382;SDS011;18014;49.228;11.102;2023-03-31T10:23:27;4.18;;;1.70;;
31382;SDS011;18014;49.228;11.102;2023-03-31T10:25:31;5.00;;;1.77;;
31382;SDS011;18014;49.228;11.102;2023-03-31T10:27:33;5.32;;;1.88;;
31382;SDS011;18014;49.228;11.102;2023-03-31T10:29:34;2.97;;;1.52;;
31382;SDS011;18014;49.228;11.102;2023-03-31T10:31:37;4.47;;;1.58;;
31382;SDS011;18014;49.228;11.102;2023-03-31T10:33:40;4.78;;;1.88;;
31382;SDS011;18014;49.228;11.102;2023-03-31T10:35:44;4.38;;;1.70;;
31382;SDS011;18014;49.228;11.102;2023-03-31T10:38:05;4.85;;;2.13;;
31382;SDS011;18014;49.228;11.102;2023-03-31T10:42:20;3.92;;;1.65;;
31382;SDS011;18014;49.228;11.102;2023-03-31T10:44:29;6.82;;;2.05;;
31382;SDS011;18014;49.228;11.102;2023-03-31T10:46:43;7.07;;;2.00;;
31382;SDS011;18014;49.228;11.102;2023-03-31T10:48:46;4.35;;;1.83;;
31382;SDS011;18014;49.228;11.102;2023-03-31T10:50:47;7.13;;;1.63;;
31382;SDS011;18014;49.228;11.102;2023-03-31T10:52:48;6.65;;;2.42;;
31382;SDS011;18014;49.228;11.102;2023-03-31T10:54:57;6.05;;;1.80;;
31382;SDS011;18014;49.228;11.102;2023-03-31T10:57:00;4.57;;;1.80;;
31382;SDS011;18014;49.228;11.102;2023-03-31T10:59:23;5.22;;;1.75;;
31382;SDS011;18014;49.228;11.102;2023-03-31T11:06:38;4.15;;;1.27;;
31382;SDS011;18014;49.228;11.102;2023-03-31T11:15:36;3.30;;;1.40;;
31382;SDS011;18014;49.228;11.102;2023-03-31T11:22:15;3.78;;;1.42;;
31382;SDS011;18014;49.228;11.102;2023-03-31T11:26:56;4.20;;;1.80;;
31382;SDS011;18014;49.228;11.102;2023-03-31T11:29:14;5.53;;;1.55;;
31382;SDS011;18014;49.228;11.102;2023-03-31T11:33:31;7.05;;;1.02;;
31382;SDS011;18014;49.228;11.102;2023-03-31T11:35:59;5.50;;;1.10;;
31382;SDS011;18014;49.228;11.102;2023-03-31T11:38:33;4.07;;;1.30;;
31382;SDS011;18014;49.228;11.102;2023-03-31T11:40:48;3.67;;;1.30;;
31382;SDS011;18014;49.228;11.102;2023-03-31T11:45:32;3.30;;;1.50;;
31382;SDS011;18014;49.228;11.102;2023-03-31T11:48:01;4.53;;;1.60;;
31382;SDS011;18014;49.228;11.102;2023-03-31T11:50:10;2.53;;;1.02;;
31382;SDS011;18014;49.228;11.102;2023-03-31T11:52:16;6.63;;;1.88;;
31382;SDS011;18014;49.228;11.102;2023-03-31T11:54:20;3.78;;;1.30;;
31382;SDS011;18014;49.228;11.102;2023-03-31T11:56:34;4.07;;;1.13;;
31382;SDS011;18014;49.228;11.102;2023-03-31T11:58:46;4.05;;;1.15;;
31382;SDS011;18014;49.228;11.102;2023-03-31T12:00:59;6.45;;;1.17;;
31382;SDS011;18014;49.228;11.102;2023-03-31T12:03:23;3.08;;;0.90;;
31382;SDS011;18014;49.228;11.102;2023-03-31T12:10:33;3.28;;;1.05;;
31382;SDS011;18014;49.228;11.102;2023-03-31T12:12:48;12.82;;;0.75;;
31382;SDS011;18014;49.228;11.102;2023-03-31T12:15:30;5.15;;;0.80;;
31382;SDS011;18014;49.228;11.102;2023-03-31T12:17:37;4.75;;;0.80;;
31382;SDS011;18014;49.228;11.102;2023-03-31T12:19:55;1.83;;;0.70;;
31382;SDS011;18014;49.228;11.102;2023-03-31T12:22:04;3.95;;;0.88;;
31382;SDS011;18014;49.228;11.102;2023-03-31T12:24:24;3.85;;;0.98;;
31382;SDS011;18014;49.228;11.102;2023-03-31T12:28:27;4.32;;;1.40;;
31382;SDS011;18014;49.228;11.102;2023-03-31T12:30:32;3.72;;;1.02;;
31382;SDS011;18014;49.228;11.102;2023-03-31T12:32:42;4.53;;;1.05;;
31382;SDS011;18014;49.228;11.102;2023-03-31T12:34:56;4.63;;;1.30;;
31382;SDS011;18014;49.228;11.102;2023-03-31T12:37:23;6.20;;;1.42;;
31382;SDS011;18014;49.228;11.102;2023-03-31T12:53:56;5.80;;;1.30;;
31382;SDS011;18014;49.228;11.102;2023-03-31T12:56:05;4.00;;;1.25;;
31382;SDS011;18014;49.228;11.102;2023-03-31T13:00:28;6.68;;;1.65;;
31382;SDS011;18014;49.228;11.102;2023-03-31T13:02:29;6.13;;;1.45;;
31382;SDS011;18014;49.228;11.102;2023-03-31T13:04:30;11.88;;;1.63;;
31382;SDS011;18014;49.228;11.102;2023-03-31T13:11:07;7.05;;;1.13;;
31382;SDS011;18014;49.228;11.102;2023-03-31T13:13:14;3.90;;;0.82;;
31382;SDS011;18014;49.228;11.102;2023-03-31T13:15:17;4.90;;;0.98;;
31382;SDS011;18014;49.228;11.102;2023-03-31T13:19:31;4.78;;;0.77;;
31382;SDS011;18014;49.228;11.102;2023-03-31T13:23:57;3.58;;;0.90;;
31382;SDS011;18014;49.228;11.102;2023-03-31T13:26:00;3.00;;;0.75;;
31382;SDS011;18014;49.228;11.102;2023-03-31T13:32:40;2.45;;;0.30;;
31382;SDS011;18014;49.228;11.102;2023-03-31T13:41:29;2.42;;;0.40;;
31382;SDS011;18014;49.228;11.102;2023-03-31T13:43:47;2.55;;;0.50;;
31382;SDS011;18014;49.228;11.102;2023-03-31T13:46:05;2.42;;;0.50;;
31382;SDS011;18014;49.228;11.102;2023-03-31T13:58:16;2.75;;;0.55;;
31382;SDS011;18014;49.228;11.102;2023-03-31T14:03:47;1.60;;;0.52;;
31382;SDS011;18014;49.228;11.102;2023-03-31T14:05:29;2.85;;;0.57;;
31382;SDS011;18014;49.228;11.102;2023-03-31T14:07:44;2.47;;;0.60;;
31382;SDS011;18014;49.228;11.102;2023-03-31T14:09:48;2.47;;;0.70;;
31382;SDS011;18014;49.228;11.102;2023-03-31T14:11:52;10.10;;;2.60;;
31382;SDS011;18014;49.228;11.102;2023-03-31T14:13:59;3.60;;;1.23;;
31382;SDS011;18014;49.228;11.102;2023-03-31T14:16:01;5.68;;;1.10;;
31382;SDS011;18014;49.228;11.102;2023-03-31T14:18:04;2.85;;;0.77;;
31382;SDS011;18014;49.228;11.102;2023-03-31T14:27:55;3.53;;;1.00;;
31382;SDS011;18014;49.228;11.102;2023-03-31T14:30:06;3.85;;;0.77;;
31382;SDS011;18014;49.228;11.102;2023-03-31T14:34:34;1.63;;;0.90;;
31382;SDS011;18014;49.228;11.102;2023-03-31T14:39:00;3.40;;;0.90;;
31382;SDS011;18014;49.228;11.102;2023-03-31T14:41:03;3.33;;;0.80;;
31382;SDS011;18014;49.228;11.102;2023-03-31T14:43:04;3.47;;;1.00;;
31382;SDS011;18014;49.228;11.102;2023-03-31T14:45:10;2.72;;;0.77;;
31382;SDS011;18014;49.228;11.102;2023-03-31T14:47:20;3.97;;;0.98;;